Detall de PIREP

Printer-friendly versionPDF version

[2012/03/05 11:24:00]
Flight IATA:CT0001
Pilot Number:011
Company ICAO:CAT
Aircraft Type:F50/A
PAX:50
Aircraft Registration:DREAMWINGS
Departing Airport: LESU
Destination Airport: LEPA
Alternate Airport:LEBL
Online: VATSIM
Route:MAMUK GRN BGR A27 KENAS
Flight Level:F150
No Slew and time accel
No pause
Crash detect
Detect pilot in Cockpit between each 30 and 45 minutes
11:24 Zero fuel Weight: 42043 Lbs, Fuel Weight: 2718 Lbs
11:24 VATSIM:No METAR available for LESU.
11:24 VATSIM:LEPA 051100Z 06011KT 7000 FEW014 BKN030 11/09 Q1025 NOSIG
11:28 Parking Brakes off
11:35 Take-off
11:35 Take off Weight: 44673 Lbs
11:35 Wind: 300º @ 010 Knots Heading: 219º
11:35 POS N42º 20´ 27´´ E001º 24´ 40´´
11:35 Gear Up: 118 Knots
11:35 Flaps:4 at 118 Knots
11:36 Flaps:3 at 146 Knots
11:36 Flaps:2 at 157 Knots
11:36 Flaps:1 at 163 Knots
11:36 Flaps:0 at 170 Knots
11:46 TOC
11:46 Fuel Weight: 2359 Lb
11:50 Wind:277º@021 Knots Heading: 085º Ground Speed: 273 Knots Altitude 15331 ft
12:05 Wind:031º@014 Knots Heading: 182º Ground Speed: 266 Knots Altitude 15305 ft
12:20 Wind:332º@020 Knots Heading: 184º Ground Speed: 270 Knots Altitude 15324 ft
12:20 TOD
12:20 Fuel Weight: 1488 Lb
12:35 Wind:027º@019 Knots Heading: 240º Ground Speed: 220 Knots Altitude 3746 ft
12:44 Flaps:1 at 180 Knots
12:44 Flaps:2 at 162 Knots
12:45 Flaps:3 at 149 Knots
12:47 Flaps:4 at 146 Knots
12:47 Gear Down: 146 Knots
12:48 Flaps:5 at 130 Knots
12:48 Flaps:6 at 125 Knots
12:50 Wind:042º@006 Knots Heading: 058º Ground Speed: 095 Knots Altitude 1102 ft
12:52 TouchDown:Rate -134 ft/min Speed: 93 Knots
12:52 VATSIM:LEPA 051230Z 04006KT 6000 -DZ FEW014 BKN030 11/08 Q1025 NOSIG
12:52 Land
12:52 Wind:042º@006 Knots
12:52 Heading: 062º
12:52 Flight Duration: 01:17
12:52 Landing Weight: 43102 Lbs
12:52 POS N39º 33´ 13´´ E002º 43´ 28´´
12:56 Parking brakes on
12:56 Block to Block Duration: 01:28
12:56 Final Fuel: 1029 Lbls
12:56 Spent Fuel: 1688 Lbls
12:56 Flight Length: 290 NM
12:56 TOD Land Length: 108 NM

Exportar CSV

Powered by Drupal - Modified by Danger4k